Terminal Aerodrome Forecast
Issued by NWS San Angelo, TX

Home | Current Version | Previous Version | Text Only | Print | Product List | Glossary On
Versions: 1 2 3 4 5 6 7 8 9 10 11 12 13
927
FTUS44 KSJT 221720
TAFSJT
TAF
KSJT 221720Z 2218/2318 16005KT P6SM SCT070
     FM222200 12005KT P6SM FEW070
     FM231600 VRB05KT P6SM VCSH SCT070 BKN250=

USA.gov is the U.S. government's official web portal to all federal, state and local government web resources and services.